Vista del Atlantico, Puerto Rico
Current Conditions -  °F | °C
As of 1:56 AM on Monday 22 Dec 2014 (Local Time) from TJSJ Reporting Station
Scattered Clouds Scattered Clouds  
Wind Chill: 75°   Ceiling: Unl
Heat Index: 75°   Visibility: 10mi
Dew Point: 68°   Wind: 0mph
Humidity: 79%   Direction: NA
Pressure: 30.05"   Gusts: NA
Location:  18.4051°N, 66.0126°W
Report Text: TJSJ 220556Z 00000KT 10SM FEW037 SCT046 24/20 A3005 RMK AO2 SLP173 T02390200 10256 20239 58013
Loading
Personal Weather Stations






























Interactive Weather Map New forecast layout! Learn more

10-Day Weather Forecast

Advertisements
Track Severe Weather on mobile